PWSweather.com
Personal Weather Stations
Station Observations
WD4JKH
Forsyth, GA 31029

Forsyth, GA 31029

Lat: 33.033225, Lon: -83.927995

Elevation: 709

Station Type: Davis Vantage VUE

Latest ConditionsUpdated 7:47:27 PM EST Sunday, Jan 19, 2020
Currently Today's Max Today's Min Today's Average
Temperature 43.0°F6.1°C 59.7°F15.4°C 43.0°F6.1°C 50.1°F10.1°C
Dew Point 24.0°F-4.4°C 58.8°F14.9°C 19.2°F-7.1°C 35.9°F2.2°C
Winds 8.1 mph NW13.0 kmh NW 12.9 mph -20.8 kmh - - 5.6 mph 9.0 kmh
Wind Gusts 13.0 mph20.9 kmh 23.0 mph37.0 kmh - -
Humidity 47% 100% 30% 63%
Pressure 30.19 in1022.4 mb 30.19 in1022.4 mb 30.05 in1017.6 mb -
Precipitation - 0.22 in5.6 mm - -
Hour Temp Dew Point Humidity Winds Wind Gusts Pressure Precip Precip Rate Daily Precip Total
07:47 PM 43.0°F6.1°C 24.0°F-4.4°C 47% 8.1 mph NW13.0 kmh NW 13.0 mph20.9 kmh 30.19 in1022.4 mb 0.00 in0.0 mm 0.00 in0.0 mm 0.22 in5.6 mm
07:42 PM 43.1°F6.2°C 24.1°F-4.4°C 47% 4.1 mph WNW6.6 kmh WNW 13.0 mph20.9 kmh 30.19 in1022.4 mb 0.00 in0.0 mm 0.00 in0.0 mm 0.22 in5.6 mm
07:37 PM 43.3°F6.3°C 24.3°F-4.3°C 47% 3.3 mph WNW5.3 kmh WNW 14.0 mph22.5 kmh 30.19 in1022.4 mb 0.00 in0.0 mm 0.00 in0.0 mm 0.22 in5.6 mm
07:32 PM 43.5°F6.4°C 24.0°F-4.4°C 46% 5.6 mph WNW9.0 kmh WNW 14.0 mph22.5 kmh 30.19 in1022.4 mb 0.00 in0.0 mm 0.00 in0.0 mm 0.22 in5.6 mm
07:27 PM 43.6°F6.4°C 24.1°F-4.4°C 46% 6.7 mph NW10.8 kmh NW 14.0 mph22.5 kmh 30.19 in1022.4 mb 0.00 in0.0 mm 0.00 in0.0 mm 0.22 in5.6 mm
07:22 PM 43.7°F6.5°C 23.6°F-4.7°C 45% 6.8 mph NW10.9 kmh NW 12.0 mph19.3 kmh 30.19 in1022.4 mb 0.00 in0.0 mm 0.00 in0.0 mm 0.22 in5.6 mm
07:17 PM 43.9°F6.6°C 23.9°F-4.5°C 45% 4.2 mph WNW6.8 kmh WNW 9.0 mph14.5 kmh 30.19 in1022.4 mb 0.00 in0.0 mm 0.00 in0.0 mm 0.22 in5.6 mm
07:12 PM 44.0°F6.7°C 23.9°F-4.5°C 45% 3.5 mph WNW5.6 kmh WNW 11.0 mph17.7 kmh 30.18 in1022.0 mb 0.00 in0.0 mm 0.00 in0.0 mm 0.22 in5.6 mm
07:07 PM 44.2°F6.8°C 24.1°F-4.4°C 45% 3.3 mph NW5.3 kmh NW 11.0 mph17.7 kmh 30.18 in1022.0 mb 0.00 in0.0 mm 0.00 in0.0 mm 0.22 in5.6 mm
07:02 PM 44.3°F6.8°C 23.6°F-4.7°C 44% 3.3 mph NW5.3 kmh NW 11.0 mph17.7 kmh 30.18 in1022.0 mb 0.00 in0.0 mm 0.00 in0.0 mm 0.22 in5.6 mm
06:57 PM 44.5°F6.9°C 23.2°F-4.9°C 43% 5.7 mph WNW9.2 kmh WNW 11.0 mph17.7 kmh 30.18 in1022.0 mb 0.00 in0.0 mm 0.00 in0.0 mm 0.22 in5.6 mm
06:51 PM 44.8°F7.1°C 23.5°F-4.7°C 43% 3.8 mph WNW6.1 kmh WNW 9.0 mph14.5 kmh 30.17 in1021.7 mb 0.00 in0.0 mm 0.00 in0.0 mm 0.22 in5.6 mm
06:46 PM 44.9°F7.2°C 23.0°F-5.0°C 42% 3.9 mph WNW6.3 kmh WNW 8.0 mph12.9 kmh 30.17 in1021.7 mb 0.00 in0.0 mm 0.00 in0.0 mm 0.22 in5.6 mm
06:41 PM 45.1°F7.3°C 23.2°F-4.9°C 42% 3.1 mph WNW5.0 kmh WNW 11.0 mph17.7 kmh 30.17 in1021.7 mb 0.00 in0.0 mm 0.00 in0.0 mm 0.22 in5.6 mm
06:35 PM 45.5°F7.5°C 22.5°F-5.3°C 40% 4.3 mph WNW6.9 kmh WNW 12.0 mph19.3 kmh 30.17 in1021.7 mb 0.00 in0.0 mm 0.00 in0.0 mm 0.22 in5.6 mm
06:30 PM 45.7°F7.6°C 22.6°F-5.2°C 40% 2.5 mph WNW4.0 kmh WNW 12.0 mph19.3 kmh 30.16 in1021.3 mb 0.00 in0.0 mm 0.00 in0.0 mm 0.22 in5.6 mm
06:23 PM 45.9°F7.7°C 22.1°F-5.5°C 39% 4.8 mph NW7.7 kmh NW 13.0 mph20.9 kmh 30.16 in1021.3 mb 0.00 in0.0 mm 0.00 in0.0 mm 0.22 in5.6 mm
06:18 PM 46.2°F7.9°C 22.6°F-5.2°C 39% 3.8 mph WNW6.1 kmh WNW 13.0 mph20.9 kmh 30.16 in1021.3 mb 0.00 in0.0 mm 0.00 in0.0 mm 0.22 in5.6 mm
06:13 PM 46.4°F8.0°C 22.1°F-5.5°C 38% 4.9 mph WNW7.9 kmh WNW 13.0 mph20.9 kmh 30.16 in1021.3 mb 0.00 in0.0 mm 0.00 in0.0 mm 0.22 in5.6 mm
06:08 PM 46.6°F8.1°C 22.3°F-5.4°C 38% 5.0 mph W8.0 kmh W 13.0 mph20.9 kmh 30.16 in1021.3 mb 0.00 in0.0 mm 0.00 in0.0 mm 0.22 in5.6 mm
06:03 PM 46.9°F8.3°C 22.0°F-5.6°C 37% 3.4 mph WNW5.5 kmh WNW 12.0 mph19.3 kmh 30.15 in1021.0 mb 0.00 in0.0 mm 0.00 in0.0 mm 0.22 in5.6 mm
05:58 PM 47.1°F8.4°C 21.3°F-5.9°C 36% 4.0 mph WNW6.4 kmh WNW 12.0 mph19.3 kmh 30.15 in1021.0 mb 0.00 in0.0 mm 0.00 in0.0 mm 0.22 in5.6 mm
05:53 PM 47.5°F8.6°C 21.0°F-6.1°C 35% 4.9 mph WNW7.9 kmh WNW 12.0 mph19.3 kmh 30.15 in1021.0 mb 0.00 in0.0 mm 0.00 in0.0 mm 0.22 in5.6 mm
05:48 PM 47.8°F8.8°C 20.5°F-6.4°C 34% 5.7 mph WNW9.2 kmh WNW 12.0 mph19.3 kmh 30.15 in1021.0 mb 0.00 in0.0 mm 0.00 in0.0 mm 0.22 in5.6 mm
05:43 PM 48.1°F8.9°C 21.7°F-5.7°C 35% 3.1 mph WNW5.0 kmh WNW 12.0 mph19.3 kmh 30.15 in1021.0 mb 0.00 in0.0 mm 0.00 in0.0 mm 0.22 in5.6 mm
05:38 PM 48.4°F9.1°C 21.1°F-6.1°C 34% 4.4 mph WNW7.1 kmh WNW 14.0 mph22.5 kmh 30.14 in1020.7 mb 0.00 in0.0 mm 0.00 in0.0 mm 0.22 in5.6 mm
05:33 PM 48.6°F9.2°C 20.5°F-6.4°C 33% 3.4 mph NW5.5 kmh NW 14.0 mph22.5 kmh 30.14 in1020.7 mb 0.00 in0.0 mm 0.00 in0.0 mm 0.22 in5.6 mm
05:28 PM 48.8°F9.3°C 20.7°F-6.3°C 33% 5.8 mph NW9.3 kmh NW 14.0 mph22.5 kmh 30.14 in1020.7 mb 0.00 in0.0 mm 0.00 in0.0 mm 0.22 in5.6 mm
05:23 PM 49.0°F9.4°C 21.1°F-6.1°C 33% 6.5 mph WNW10.5 kmh WNW 14.0 mph22.5 kmh 30.14 in1020.7 mb 0.00 in0.0 mm 0.00 in0.0 mm 0.22 in5.6 mm
05:18 PM 49.3°F9.6°C 21.2°F-6.0°C 33% 5.5 mph NW8.9 kmh NW 15.0 mph24.1 kmh 30.14 in1020.7 mb 0.00 in0.0 mm 0.00 in0.0 mm 0.22 in5.6 mm
05:13 PM 49.5°F9.7°C 20.6°F-6.3°C 32% 5.3 mph NW8.5 kmh NW 15.0 mph24.1 kmh 30.14 in1020.7 mb 0.00 in0.0 mm 0.00 in0.0 mm 0.22 in5.6 mm
05:08 PM 49.7°F9.8°C 21.7°F-5.7°C 33% 3.5 mph WNW5.6 kmh WNW 15.0 mph24.1 kmh 30.14 in1020.7 mb 0.00 in0.0 mm 0.00 in0.0 mm 0.22 in5.6 mm
05:03 PM 49.6°F9.8°C 21.4°F-5.9°C 33% 5.0 mph WNW8.0 kmh WNW 16.0 mph25.7 kmh 30.14 in1020.7 mb 0.00 in0.0 mm 0.00 in0.0 mm 0.22 in5.6 mm
04:58 PM 49.6°F9.8°C 21.4°F-5.9°C 33% 5.5 mph NW8.9 kmh NW 20.0 mph32.2 kmh 30.14 in1020.7 mb 0.00 in0.0 mm 0.00 in0.0 mm 0.22 in5.6 mm
04:54 PM 49.5°F9.7°C 20.6°F-6.3°C 32% 7.4 mph NW11.9 kmh NW 20.0 mph32.2 kmh 30.14 in1020.7 mb 0.00 in0.0 mm 0.00 in0.0 mm 0.22 in5.6 mm
04:49 PM 49.5°F9.7°C 20.6°F-6.3°C 32% 7.3 mph NW11.7 kmh NW 20.0 mph32.2 kmh 30.14 in1020.7 mb 0.00 in0.0 mm 0.00 in0.0 mm 0.22 in5.6 mm
04:44 PM 49.5°F9.7°C 19.9°F-6.7°C 31% 8.4 mph NW13.5 kmh NW 20.0 mph32.2 kmh 30.13 in1020.3 mb 0.00 in0.0 mm 0.00 in0.0 mm 0.22 in5.6 mm
04:39 PM 49.5°F9.7°C 20.8°F-6.2°C 32% 5.6 mph NW9.0 kmh NW 18.0 mph29.0 kmh 30.13 in1020.3 mb 0.00 in0.0 mm 0.00 in0.0 mm 0.22 in5.6 mm
04:34 PM 49.9°F9.9°C 21.2°F-6.0°C 32% 7.4 mph NW11.9 kmh NW 18.0 mph29.0 kmh 30.13 in1020.3 mb 0.00 in0.0 mm 0.00 in0.0 mm 0.22 in5.6 mm
04:29 PM 49.8°F9.9°C 20.9°F-6.2°C 32% 5.4 mph NW8.7 kmh NW 17.0 mph27.4 kmh 30.13 in1020.3 mb 0.00 in0.0 mm 0.00 in0.0 mm 0.22 in5.6 mm
04:24 PM 49.8°F9.9°C 20.9°F-6.2°C 32% 9.9 mph WNW15.9 kmh WNW 17.0 mph27.4 kmh 30.13 in1020.3 mb 0.00 in0.0 mm 0.00 in0.0 mm 0.22 in5.6 mm
04:19 PM 49.7°F9.8°C 20.8°F-6.2°C 32% 7.7 mph WNW12.4 kmh WNW 19.0 mph30.6 kmh 30.13 in1020.3 mb 0.00 in0.0 mm 0.00 in0.0 mm 0.22 in5.6 mm
04:14 PM 49.8°F9.9°C 20.9°F-6.2°C 32% 7.5 mph NW12.1 kmh NW 19.0 mph30.6 kmh 30.13 in1020.3 mb 0.00 in0.0 mm 0.00 in0.0 mm 0.22 in5.6 mm
04:09 PM 49.5°F9.7°C 19.9°F-6.7°C 31% 9.7 mph WNW15.6 kmh WNW 19.0 mph30.6 kmh 30.13 in1020.3 mb 0.00 in0.0 mm 0.00 in0.0 mm 0.22 in5.6 mm
04:04 PM 49.6°F9.8°C 20.2°F-6.6°C 31% 8.6 mph WNW13.8 kmh WNW 19.0 mph30.6 kmh 30.13 in1020.3 mb 0.00 in0.0 mm 0.00 in0.0 mm 0.22 in5.6 mm
03:59 PM 49.7°F9.8°C 20.0°F-6.7°C 31% 8.2 mph WNW13.2 kmh WNW 17.0 mph27.4 kmh 30.13 in1020.3 mb 0.00 in0.0 mm 0.00 in0.0 mm 0.22 in5.6 mm
03:54 PM 49.7°F9.8°C 20.8°F-6.2°C 32% 8.3 mph NW13.4 kmh NW 17.0 mph27.4 kmh 30.13 in1020.3 mb 0.00 in0.0 mm 0.00 in0.0 mm 0.22 in5.6 mm
03:49 PM 49.8°F9.9°C 20.9°F-6.2°C 32% 4.7 mph WNW7.6 kmh WNW 17.0 mph27.4 kmh 30.12 in1020.0 mb 0.00 in0.0 mm 0.00 in0.0 mm 0.22 in5.6 mm
03:44 PM 49.9°F9.9°C 19.5°F-6.9°C 30% 8.2 mph NW13.2 kmh NW 17.0 mph27.4 kmh 30.12 in1020.0 mb 0.00 in0.0 mm 0.00 in0.0 mm 0.22 in5.6 mm
03:39 PM 50.1°F10.1°C 21.1°F-6.1°C 32% 7.1 mph WNW11.4 kmh WNW 17.0 mph27.4 kmh 30.12 in1020.0 mb 0.00 in0.0 mm 0.00 in0.0 mm 0.22 in5.6 mm
03:34 PM 49.9°F9.9°C 21.7°F-5.7°C 33% 3.7 mph WNW6.0 kmh WNW 17.0 mph27.4 kmh 30.12 in1020.0 mb 0.00 in0.0 mm 0.00 in0.0 mm 0.22 in5.6 mm
03:29 PM 49.8°F9.9°C 20.3°F-6.5°C 31% 8.2 mph NW13.2 kmh NW 17.0 mph27.4 kmh 30.12 in1020.0 mb 0.00 in0.0 mm 0.00 in0.0 mm 0.22 in5.6 mm
03:24 PM 50.0°F10.0°C 21.0°F-6.1°C 32% 7.6 mph WNW12.2 kmh WNW 18.0 mph29.0 kmh 30.12 in1020.0 mb 0.00 in0.0 mm 0.00 in0.0 mm 0.22 in5.6 mm
03:19 PM 49.9°F9.9°C 20.2°F-6.6°C 31% 7.8 mph WNW12.6 kmh WNW 18.0 mph29.0 kmh 30.12 in1020.0 mb 0.00 in0.0 mm 0.00 in0.0 mm 0.22 in5.6 mm
03:14 PM 49.8°F9.9°C 20.9°F-6.2°C 32% 4.2 mph WNW6.8 kmh WNW 19.0 mph30.6 kmh 30.12 in1020.0 mb 0.00 in0.0 mm 0.00 in0.0 mm 0.22 in5.6 mm
03:09 PM 49.6°F9.8°C 19.2°F-7.1°C 30% 9.3 mph WNW15.0 kmh WNW 19.0 mph30.6 kmh 30.12 in1020.0 mb 0.00 in0.0 mm 0.00 in0.0 mm 0.22 in5.6 mm
03:04 PM 50.0°F10.0°C 21.0°F-6.1°C 32% 6.6 mph NW10.6 kmh NW 19.0 mph30.6 kmh 30.12 in1020.0 mb 0.00 in0.0 mm 0.00 in0.0 mm 0.22 in5.6 mm
02:59 PM 49.7°F9.8°C 20.8°F-6.2°C 32% 7.9 mph WNW12.7 kmh WNW 19.0 mph30.6 kmh 30.11 in1019.6 mb 0.00 in0.0 mm 0.00 in0.0 mm 0.22 in5.6 mm
02:54 PM 49.7°F9.8°C 21.5°F-5.8°C 33% 7.8 mph NW12.6 kmh NW 16.0 mph25.7 kmh 30.11 in1019.6 mb 0.00 in0.0 mm 0.00 in0.0 mm 0.22 in5.6 mm
02:49 PM 49.3°F9.6°C 20.4°F-6.4°C 32% 8.8 mph NW14.2 kmh NW 16.0 mph25.7 kmh 30.11 in1019.6 mb 0.00 in0.0 mm 0.00 in0.0 mm 0.22 in5.6 mm
02:44 PM 49.3°F9.6°C 21.2°F-6.0°C 33% 7.3 mph NW11.7 kmh NW 17.0 mph27.4 kmh 30.11 in1019.6 mb 0.00 in0.0 mm 0.00 in0.0 mm 0.22 in5.6 mm
02:39 PM 49.3°F9.6°C 20.4°F-6.4°C 32% 5.9 mph NW9.5 kmh NW 19.0 mph30.6 kmh 30.12 in1020.0 mb 0.00 in0.0 mm 0.00 in0.0 mm 0.22 in5.6 mm
02:34 PM 49.0°F9.4°C 20.4°F-6.4°C 32% 8.9 mph NW14.3 kmh NW 19.0 mph30.6 kmh 30.11 in1019.6 mb 0.00 in0.0 mm 0.00 in0.0 mm 0.22 in5.6 mm
02:29 PM 48.9°F9.4°C 20.1°F-6.6°C 32% 10.1 mph NW16.3 kmh NW 19.0 mph30.6 kmh 30.11 in1019.6 mb 0.00 in0.0 mm 0.00 in0.0 mm 0.22 in5.6 mm
02:24 PM 48.9°F9.4°C 20.1°F-6.6°C 32% 10.6 mph NW17.1 kmh NW 19.0 mph30.6 kmh 30.12 in1020.0 mb 0.00 in0.0 mm 0.00 in0.0 mm 0.22 in5.6 mm
02:19 PM 48.8°F9.3°C 20.2°F-6.6°C 32% 9.7 mph WNW15.6 kmh WNW 18.0 mph29.0 kmh 30.11 in1019.6 mb 0.00 in0.0 mm 0.00 in0.0 mm 0.22 in5.6 mm
02:14 PM 48.7°F9.3°C 20.6°F-6.3°C 33% 7.0 mph NW11.3 kmh NW 18.0 mph29.0 kmh 30.11 in1019.6 mb 0.00 in0.0 mm 0.00 in0.0 mm 0.22 in5.6 mm
02:09 PM 48.8°F9.3°C 21.4°F-5.9°C 34% 8.2 mph NW13.2 kmh NW 17.0 mph27.4 kmh 30.12 in1020.0 mb 0.00 in0.0 mm 0.00 in0.0 mm 0.22 in5.6 mm
02:04 PM 48.5°F9.2°C 21.2°F-6.0°C 34% 10.7 mph NW17.2 kmh NW 20.0 mph32.2 kmh 30.12 in1020.0 mb 0.00 in0.0 mm 0.00 in0.0 mm 0.22 in5.6 mm
01:59 PM 48.5°F9.2°C 21.2°F-6.0°C 34% 7.3 mph WNW11.7 kmh WNW 20.0 mph32.2 kmh 30.12 in1020.0 mb 0.00 in0.0 mm 0.00 in0.0 mm 0.22 in5.6 mm
01:54 PM 48.5°F9.2°C 21.8°F-5.7°C 35% 6.6 mph NW10.6 kmh NW 20.0 mph32.2 kmh 30.13 in1020.3 mb 0.00 in0.0 mm 0.00 in0.0 mm 0.22 in5.6 mm
01:49 PM 48.4°F9.1°C 21.8°F-5.7°C 35% 6.9 mph WNW11.1 kmh WNW 20.0 mph32.2 kmh 30.12 in1020.0 mb 0.00 in0.0 mm 0.00 in0.0 mm 0.22 in5.6 mm
01:44 PM 48.4°F9.1°C 21.1°F-6.1°C 34% 10.6 mph WNW17.1 kmh WNW 20.0 mph32.2 kmh 30.13 in1020.3 mb 0.00 in0.0 mm 0.00 in0.0 mm 0.22 in5.6 mm
01:39 PM 48.4°F9.1°C 21.8°F-5.7°C 35% 9.8 mph WNW15.8 kmh WNW 20.0 mph32.2 kmh 30.12 in1020.0 mb 0.00 in0.0 mm 0.00 in0.0 mm 0.22 in5.6 mm
01:34 PM 48.6°F9.2°C 24.1°F-4.4°C 38% 6.3 mph NW10.1 kmh NW 15.0 mph24.1 kmh 30.13 in1020.3 mb 0.00 in0.0 mm 0.00 in0.0 mm 0.22 in5.6 mm
01:29 PM 48.1°F8.9°C 24.3°F-4.3°C 39% 6.9 mph WNW11.1 kmh WNW 14.0 mph22.5 kmh 30.13 in1020.3 mb 0.00 in0.0 mm 0.00 in0.0 mm 0.22 in5.6 mm
01:24 PM 47.6°F8.7°C 24.4°F-4.2°C 40% 8.0 mph NW12.9 kmh NW 15.0 mph24.1 kmh 30.13 in1020.3 mb 0.00 in0.0 mm 0.00 in0.0 mm 0.22 in5.6 mm
01:19 PM 47.6°F8.7°C 26.6°F-3.0°C 44% 3.6 mph NW5.8 kmh NW 16.0 mph25.7 kmh 30.13 in1020.3 mb 0.00 in0.0 mm 0.00 in0.0 mm 0.22 in5.6 mm
01:14 PM 47.1°F8.4°C 23.8°F-4.6°C 40% 7.5 mph NW12.1 kmh NW 23.0 mph37.0 kmh 30.14 in1020.7 mb 0.00 in0.0 mm 0.00 in0.0 mm 0.22 in5.6 mm
01:09 PM 47.0°F8.3°C 24.9°F-3.9°C 42% 5.0 mph WNW8.0 kmh WNW 23.0 mph37.0 kmh 30.13 in1020.3 mb 0.00 in0.0 mm 0.00 in0.0 mm 0.22 in5.6 mm
01:04 PM 46.7°F8.2°C 23.5°F-4.7°C 40% 7.0 mph NW11.3 kmh NW 23.0 mph37.0 kmh 30.14 in1020.7 mb 0.00 in0.0 mm 0.00 in0.0 mm 0.22 in5.6 mm
12:59 PM 46.9°F8.3°C 22.4°F-5.3°C 38% 12.9 mph NW20.8 kmh NW 23.0 mph37.0 kmh 30.14 in1020.7 mb 0.00 in0.0 mm 0.00 in0.0 mm 0.22 in5.6 mm
12:54 PM 46.6°F8.1°C 25.7°F-3.5°C 44% 6.6 mph NW10.6 kmh NW 17.0 mph27.4 kmh 30.14 in1020.7 mb 0.00 in0.0 mm 0.00 in0.0 mm 0.22 in5.6 mm
12:49 PM 46.5°F8.1°C 26.7°F-2.9°C 46% 5.1 mph NW8.2 kmh NW 17.0 mph27.4 kmh 30.15 in1021.0 mb 0.00 in0.0 mm 0.00 in0.0 mm 0.22 in5.6 mm
12:44 PM 46.3°F7.9°C 27.6°F-2.4°C 48% 3.0 mph WNW4.8 kmh WNW 17.0 mph27.4 kmh 30.14 in1020.7 mb 0.00 in0.0 mm 0.00 in0.0 mm 0.22 in5.6 mm
12:39 PM 46.0°F7.8°C 26.3°F-3.2°C 46% 7.9 mph WNW12.7 kmh WNW 19.0 mph30.6 kmh 30.15 in1021.0 mb 0.00 in0.0 mm 0.00 in0.0 mm 0.22 in5.6 mm
12:34 PM 45.4°F7.4°C 25.7°F-3.5°C 46% 8.8 mph WNW14.2 kmh WNW 19.0 mph30.6 kmh 30.15 in1021.0 mb 0.00 in0.0 mm 0.00 in0.0 mm 0.22 in5.6 mm
12:29 PM 44.9°F7.2°C 26.3°F-3.2°C 48% 7.8 mph NW12.6 kmh NW 19.0 mph30.6 kmh 30.15 in1021.0 mb 0.00 in0.0 mm 0.00 in0.0 mm 0.22 in5.6 mm
12:24 PM 45.1°F7.3°C 27.1°F-2.7°C 49% 6.6 mph NW10.6 kmh NW 19.0 mph30.6 kmh 30.15 in1021.0 mb 0.00 in0.0 mm 0.00 in0.0 mm 0.22 in5.6 mm
12:19 PM 44.9°F7.2°C 27.8°F-2.3°C 51% 8.7 mph NW14.0 kmh NW 16.0 mph25.7 kmh 30.15 in1021.0 mb 0.00 in0.0 mm 0.00 in0.0 mm 0.22 in5.6 mm
12:14 PM 44.9°F7.2°C 28.8°F-1.8°C 53% 6.0 mph WNW9.7 kmh WNW 16.0 mph25.7 kmh 30.16 in1021.3 mb 0.00 in0.0 mm 0.00 in0.0 mm 0.22 in5.6 mm
12:09 PM 44.9°F7.2°C 29.7°F-1.3°C 55% 7.4 mph WNW11.9 kmh WNW 16.0 mph25.7 kmh 30.16 in1021.3 mb 0.00 in0.0 mm 0.00 in0.0 mm 0.22 in5.6 mm
12:04 PM 44.5°F6.9°C 30.3°F-0.9°C 57% 4.7 mph WNW7.6 kmh WNW 16.0 mph25.7 kmh 30.16 in1021.3 mb 0.00 in0.0 mm 0.00 in0.0 mm 0.22 in5.6 mm
11:59 AM 44.2°F6.8°C 30.8°F-0.7°C 59% 5.3 mph WNW8.5 kmh WNW 16.0 mph25.7 kmh 30.16 in1021.3 mb 0.00 in0.0 mm 0.00 in0.0 mm 0.22 in5.6 mm
11:55 AM 43.9°F6.6°C 31.4°F-0.3°C 61% 4.1 mph NW6.6 kmh NW 23.0 mph37.0 kmh 30.17 in1021.7 mb 0.00 in0.0 mm 0.00 in0.0 mm 0.22 in5.6 mm
11:50 AM 43.7°F6.5°C 31.2°F-0.4°C 61% 4.3 mph NW6.9 kmh NW 23.0 mph37.0 kmh 30.17 in1021.7 mb 0.00 in0.0 mm 0.00 in0.0 mm 0.22 in5.6 mm
11:45 AM 43.6°F6.4°C 31.1°F-0.5°C 61% 4.8 mph NW7.7 kmh NW 23.0 mph37.0 kmh 30.17 in1021.7 mb 0.00 in0.0 mm 0.00 in0.0 mm 0.22 in5.6 mm
11:40 AM 43.7°F6.5°C 30.4°F-0.9°C 59% 7.6 mph NW12.2 kmh NW 23.0 mph37.0 kmh 30.17 in1021.7 mb 0.00 in0.0 mm 0.00 in0.0 mm 0.22 in5.6 mm
11:35 AM 43.9°F6.6°C 33.0°F0.6°C 65% 6.0 mph NW9.7 kmh NW 19.0 mph30.6 kmh 30.17 in1021.7 mb 0.00 in0.0 mm 0.00 in0.0 mm 0.22 in5.6 mm
11:29 AM 43.9°F6.6°C 33.7°F0.9°C 67% 7.1 mph WNW11.4 kmh WNW 19.0 mph30.6 kmh 30.17 in1021.7 mb 0.00 in0.0 mm 0.00 in0.0 mm 0.22 in5.6 mm
11:25 AM 44.1°F6.7°C 34.7°F1.5°C 69% 4.9 mph W7.9 kmh W 14.0 mph22.5 kmh 30.18 in1022.0 mb 0.00 in0.0 mm 0.00 in0.0 mm 0.22 in5.6 mm
11:20 AM 44.2°F6.8°C 34.8°F1.6°C 69% 8.9 mph WNW14.3 kmh WNW 18.0 mph29.0 kmh 30.17 in1021.7 mb 0.00 in0.0 mm 0.00 in0.0 mm 0.22 in5.6 mm
11:15 AM 44.5°F6.9°C 35.3°F1.8°C 70% 5.3 mph WNW8.5 kmh WNW 18.0 mph29.0 kmh 30.17 in1021.7 mb 0.00 in0.0 mm 0.00 in0.0 mm 0.22 in5.6 mm
11:09 AM 44.4°F6.9°C 34.6°F1.4°C 68% 6.1 mph WNW9.8 kmh WNW 18.0 mph29.0 kmh 30.18 in1022.0 mb 0.00 in0.0 mm 0.00 in0.0 mm 0.22 in5.6 mm
11:05 AM 44.5°F6.9°C 34.7°F1.5°C 68% 10.3 mph NW16.6 kmh NW 20.0 mph32.2 kmh 30.18 in1022.0 mb 0.00 in0.0 mm 0.00 in0.0 mm 0.22 in5.6 mm
11:00 AM 44.6°F7.0°C 35.5°F1.9°C 70% 7.2 mph NW11.6 kmh NW 20.0 mph32.2 kmh 30.17 in1021.7 mb 0.00 in0.0 mm 0.00 in0.0 mm 0.22 in5.6 mm
10:54 AM 44.6°F7.0°C 35.9°F2.2°C 71% 7.2 mph NW11.6 kmh NW 20.0 mph32.2 kmh 30.17 in1021.7 mb 0.00 in0.0 mm 0.00 in0.0 mm 0.22 in5.6 mm
10:49 AM 44.7°F7.1°C 36.3°F2.4°C 72% 7.2 mph NW11.6 kmh NW 20.0 mph32.2 kmh 30.17 in1021.7 mb 0.00 in0.0 mm 0.00 in0.0 mm 0.22 in5.6 mm
10:45 AM 44.7°F7.1°C 36.3°F2.4°C 72% 6.4 mph WNW10.3 kmh WNW 20.0 mph32.2 kmh 30.17 in1021.7 mb 0.00 in0.0 mm 0.00 in0.0 mm 0.22 in5.6 mm
10:39 AM 44.9°F7.2°C 36.5°F2.5°C 72% 7.2 mph NW11.6 kmh NW 20.0 mph32.2 kmh 30.17 in1021.7 mb 0.00 in0.0 mm 0.00 in0.0 mm 0.22 in5.6 mm
10:34 AM 45.1°F7.3°C 37.0°F2.8°C 73% 6.2 mph NW10.0 kmh NW 20.0 mph32.2 kmh 30.17 in1021.7 mb 0.00 in0.0 mm 0.00 in0.0 mm 0.22 in5.6 mm
10:29 AM 44.9°F7.2°C 37.2°F2.9°C 74% 4.5 mph NW7.2 kmh NW 20.0 mph32.2 kmh 30.17 in1021.7 mb 0.00 in0.0 mm 0.00 in0.0 mm 0.22 in5.6 mm
10:24 AM 45.0°F7.2°C 36.9°F2.7°C 73% 7.8 mph NW12.6 kmh NW 17.0 mph27.4 kmh 30.16 in1021.3 mb 0.00 in0.0 mm 0.00 in0.0 mm 0.22 in5.6 mm
10:19 AM 45.2°F7.3°C 37.8°F3.2°C 75% 5.7 mph NW9.2 kmh NW 17.0 mph27.4 kmh 30.16 in1021.3 mb 0.00 in0.0 mm 0.00 in0.0 mm 0.22 in5.6 mm
10:14 AM 45.1°F7.3°C 38.0°F3.3°C 76% 3.7 mph NW6.0 kmh NW 17.0 mph27.4 kmh 30.16 in1021.3 mb 0.00 in0.0 mm 0.00 in0.0 mm 0.22 in5.6 mm
10:09 AM 45.0°F7.2°C 37.6°F3.1°C 75% 9.1 mph NW14.6 kmh NW 17.0 mph27.4 kmh 30.15 in1021.0 mb 0.00 in0.0 mm 0.00 in0.0 mm 0.22 in5.6 mm
10:04 AM 45.2°F7.3°C 37.7°F3.2°C 75% 10.6 mph NW17.1 kmh NW 17.0 mph27.4 kmh 30.15 in1021.0 mb 0.00 in0.0 mm 0.00 in0.0 mm 0.22 in5.6 mm
09:59 AM 45.2°F7.3°C 38.1°F3.4°C 76% 5.7 mph NW9.2 kmh NW 18.0 mph29.0 kmh 30.15 in1021.0 mb 0.00 in0.0 mm 0.00 in0.0 mm 0.22 in5.6 mm
09:54 AM 45.2°F7.3°C 37.7°F3.2°C 75% 7.3 mph NW11.7 kmh NW 18.0 mph29.0 kmh 30.15 in1021.0 mb 0.00 in0.0 mm 0.00 in0.0 mm 0.22 in5.6 mm
09:49 AM 45.3°F7.4°C 37.9°F3.3°C 75% 6.4 mph NW10.3 kmh NW 18.0 mph29.0 kmh 30.15 in1021.0 mb 0.00 in0.0 mm 0.00 in0.0 mm 0.22 in5.6 mm
09:44 AM 45.4°F7.4°C 38.0°F3.3°C 75% 6.7 mph NW10.8 kmh NW 18.0 mph29.0 kmh 30.15 in1021.0 mb 0.00 in0.0 mm 0.00 in0.0 mm 0.22 in5.6 mm
09:39 AM 45.5°F7.5°C 38.1°F3.4°C 75% 8.5 mph WNW13.7 kmh WNW 16.0 mph25.7 kmh 30.15 in1021.0 mb 0.00 in0.0 mm 0.00 in0.0 mm 0.22 in5.6 mm
09:34 AM 45.7°F7.6°C 39.0°F3.9°C 77% 5.7 mph WNW9.2 kmh WNW 17.0 mph27.4 kmh 30.15 in1021.0 mb 0.00 in0.0 mm 0.00 in0.0 mm 0.22 in5.6 mm
09:29 AM 45.7°F7.6°C 38.9°F3.8°C 77% 4.6 mph NW7.4 kmh NW 17.0 mph27.4 kmh 30.15 in1021.0 mb 0.00 in0.0 mm 0.00 in0.0 mm 0.22 in5.6 mm
09:24 AM 45.8°F7.7°C 39.0°F3.9°C 77% 5.9 mph NW9.5 kmh NW 17.0 mph27.4 kmh 30.14 in1020.7 mb 0.00 in0.0 mm 0.00 in0.0 mm 0.22 in5.6 mm
09:19 AM 45.9°F7.7°C 39.1°F3.9°C 77% 8.5 mph WNW13.7 kmh WNW 17.0 mph27.4 kmh 30.14 in1020.7 mb 0.00 in0.0 mm 0.00 in0.0 mm 0.22 in5.6 mm
09:14 AM 46.1°F7.8°C 39.7°F4.3°C 78% 8.3 mph NW13.4 kmh NW 17.0 mph27.4 kmh 30.14 in1020.7 mb 0.00 in0.0 mm 0.00 in0.0 mm 0.22 in5.6 mm
09:09 AM 46.2°F7.9°C 39.8°F4.3°C 78% 9.3 mph NW15.0 kmh NW 18.0 mph29.0 kmh 30.14 in1020.7 mb 0.00 in0.0 mm 0.00 in0.0 mm 0.22 in5.6 mm
09:04 AM 46.3°F7.9°C 40.2°F4.6°C 79% 6.6 mph NW10.6 kmh NW 18.0 mph29.0 kmh 30.14 in1020.7 mb 0.00 in0.0 mm 0.00 in0.0 mm 0.22 in5.6 mm
08:59 AM 46.3°F7.9°C 40.1°F4.5°C 79% 4.6 mph NW7.4 kmh NW 18.0 mph29.0 kmh 30.14 in1020.7 mb 0.00 in0.0 mm 0.00 in0.0 mm 0.22 in5.6 mm
08:54 AM 46.3°F7.9°C 40.2°F4.6°C 79% 7.7 mph NW12.4 kmh NW 18.0 mph29.0 kmh 30.13 in1020.3 mb 0.00 in0.0 mm 0.00 in0.0 mm 0.22 in5.6 mm
08:49 AM 46.4°F8.0°C 40.3°F4.6°C 79% 10.6 mph NW17.1 kmh NW 18.0 mph29.0 kmh 30.13 in1020.3 mb 0.00 in0.0 mm 0.00 in0.0 mm 0.22 in5.6 mm
08:44 AM 46.6°F8.1°C 40.5°F4.7°C 79% 8.1 mph NW13.0 kmh NW 14.0 mph22.5 kmh 30.13 in1020.3 mb 0.00 in0.0 mm 0.00 in0.0 mm 0.22 in5.6 mm
08:39 AM 46.8°F8.2°C 41.0°F5.0°C 80% 5.8 mph NW9.3 kmh NW 14.0 mph22.5 kmh 30.13 in1020.3 mb 0.00 in0.0 mm 0.00 in0.0 mm 0.22 in5.6 mm
08:34 AM 47.2°F8.4°C 40.7°F4.8°C 78% 6.2 mph NW10.0 kmh NW 14.0 mph22.5 kmh 30.13 in1020.3 mb 0.00 in0.0 mm 0.00 in0.0 mm 0.22 in5.6 mm
04:52 AM 54.7°F12.6°C 54.7°F12.6°C 100% Calm Calm 8.0 mph12.9 kmh 30.05 in1017.6 mb 0.02 in0.5 mm 0.00 in0.0 mm 0.22 in5.6 mm
04:47 AM 54.7°F12.6°C 54.7°F12.6°C 100% Calm Calm 9.0 mph14.5 kmh 30.05 in1017.6 mb 0.03 in0.8 mm 0.00 in0.0 mm 0.22 in5.6 mm
04:42 AM 55.7°F13.2°C 54.5°F12.5°C 96% 3.1 mph NW5.0 kmh NW 9.0 mph14.5 kmh 30.05 in1017.6 mb 0.03 in0.8 mm 0.00 in0.0 mm 0.22 in5.6 mm
04:37 AM 55.8°F13.2°C 54.6°F12.6°C 96% 3.4 mph NW5.5 kmh NW 10.0 mph16.1 kmh 30.05 in1017.6 mb 0.05 in1.3 mm 0.00 in0.0 mm 0.22 in5.6 mm
04:32 AM 55.8°F13.2°C 54.6°F12.6°C 96% 3.9 mph NW6.3 kmh NW 10.0 mph16.1 kmh 30.05 in1017.6 mb 0.06 in1.5 mm 0.00 in0.0 mm 0.22 in5.6 mm
04:27 AM 55.8°F13.2°C 54.6°F12.6°C 96% 3.3 mph NW5.3 kmh NW 10.0 mph16.1 kmh 30.05 in1017.6 mb 0.07 in1.8 mm 0.00 in0.0 mm 0.22 in5.6 mm
04:22 AM 55.8°F13.2°C 54.7°F12.6°C 96% 4.4 mph NW7.1 kmh NW 10.0 mph16.1 kmh 30.05 in1017.6 mb 0.07 in1.8 mm 0.00 in0.0 mm 0.22 in5.6 mm
04:17 AM 55.9°F13.3°C 54.8°F12.7°C 96% 2.2 mph NW3.5 kmh NW 8.0 mph12.9 kmh 30.05 in1017.6 mb 0.07 in1.8 mm 0.12 in3.0 mm 0.22 in5.6 mm
04:12 AM 56.0°F13.3°C 54.9°F12.7°C 96% 3.9 mph NW6.3 kmh NW 8.0 mph12.9 kmh 30.05 in1017.6 mb 0.06 in1.5 mm 0.00 in0.0 mm 0.21 in5.3 mm
04:07 AM 56.3°F13.5°C 55.5°F13.1°C 97% 4.1 mph NW6.6 kmh NW 8.0 mph12.9 kmh 30.06 in1017.9 mb 0.06 in1.5 mm 0.00 in0.0 mm 0.21 in5.3 mm
04:02 AM 56.5°F13.6°C 55.7°F13.2°C 97% 4.8 mph NW7.7 kmh NW 7.0 mph11.3 kmh 30.05 in1017.6 mb 0.06 in1.5 mm 0.00 in0.0 mm 0.21 in5.3 mm
03:57 AM 56.5°F13.6°C 55.7°F13.2°C 97% 2.8 mph NW4.5 kmh NW 7.0 mph11.3 kmh 30.05 in1017.6 mb 0.06 in1.5 mm 0.12 in3.0 mm 0.21 in5.3 mm
03:52 AM 56.5°F13.6°C 55.6°F13.1°C 97% 2.8 mph WNW4.5 kmh WNW 7.0 mph11.3 kmh 30.06 in1017.9 mb 0.05 in1.3 mm 0.12 in3.0 mm 0.20 in5.1 mm
03:47 AM 56.6°F13.7°C 55.7°F13.2°C 97% 1.5 mph NW2.4 kmh NW 7.0 mph11.3 kmh 30.06 in1017.9 mb 0.04 in1.0 mm 0.00 in0.0 mm 0.19 in4.8 mm
03:42 AM 56.6°F13.7°C 55.7°F13.2°C 97% 2.5 mph WNW4.0 kmh WNW 6.0 mph9.7 kmh 30.06 in1017.9 mb 0.04 in1.0 mm 0.24 in6.1 mm 0.19 in4.8 mm
03:37 AM 56.6°F13.7°C 55.7°F13.2°C 97% 1.8 mph WNW2.9 kmh WNW 6.0 mph9.7 kmh 30.06 in1017.9 mb 0.02 in0.5 mm 0.00 in0.0 mm 0.17 in4.3 mm
03:32 AM 56.6°F13.7°C 55.7°F13.2°C 97% 3.3 mph WNW5.3 kmh WNW 6.0 mph9.7 kmh 30.06 in1017.9 mb 0.02 in0.5 mm 0.12 in3.0 mm 0.16 in4.1 mm
03:27 AM 56.6°F13.7°C 55.7°F13.2°C 97% 2.8 mph WNW4.5 kmh WNW 6.0 mph9.7 kmh 30.06 in1017.9 mb 0.01 in0.3 mm 0.00 in0.0 mm 0.15 in3.8 mm
03:22 AM 56.5°F13.6°C 55.6°F13.1°C 97% 2.6 mph WNW4.2 kmh WNW 7.0 mph11.3 kmh 30.05 in1017.6 mb 0.01 in0.3 mm 0.00 in0.0 mm 0.15 in3.8 mm
03:17 AM 56.6°F13.7°C 55.7°F13.2°C 97% 2.1 mph WNW3.4 kmh WNW 7.0 mph11.3 kmh 30.05 in1017.6 mb 0.01 in0.3 mm 0.00 in0.0 mm 0.15 in3.8 mm
03:12 AM 56.5°F13.6°C 55.7°F13.2°C 97% 2.0 mph WNW3.2 kmh WNW 7.0 mph11.3 kmh 30.06 in1017.9 mb 0.02 in0.5 mm 0.00 in0.0 mm 0.15 in3.8 mm
03:07 AM 56.5°F13.6°C 55.6°F13.1°C 97% 4.6 mph WNW7.4 kmh WNW 7.0 mph11.3 kmh 30.06 in1017.9 mb 0.05 in1.3 mm 0.00 in0.0 mm 0.15 in3.8 mm
03:02 AM 56.5°F13.6°C 55.6°F13.1°C 97% 3.3 mph WNW5.3 kmh WNW 7.0 mph11.3 kmh 30.06 in1017.9 mb 0.07 in1.8 mm 0.00 in0.0 mm 0.15 in3.8 mm
02:57 AM 56.5°F13.6°C 55.6°F13.1°C 97% 3.0 mph WNW4.8 kmh WNW 7.0 mph11.3 kmh 30.06 in1017.9 mb 0.08 in2.0 mm 0.00 in0.0 mm 0.15 in3.8 mm
02:52 AM 56.5°F13.6°C 55.7°F13.2°C 97% 1.7 mph WNW2.7 kmh WNW 7.0 mph11.3 kmh 30.06 in1017.9 mb 0.08 in2.0 mm 0.00 in0.0 mm 0.15 in3.8 mm
02:47 AM 56.4°F13.6°C 55.6°F13.1°C 97% 1.9 mph WNW3.1 kmh WNW 6.0 mph9.7 kmh 30.06 in1017.9 mb 0.09 in2.3 mm 0.00 in0.0 mm 0.15 in3.8 mm
02:42 AM 56.4°F13.6°C 55.5°F13.1°C 97% 2.4 mph WNW3.9 kmh WNW 6.0 mph9.7 kmh 30.06 in1017.9 mb 0.09 in2.3 mm 0.00 in0.0 mm 0.15 in3.8 mm
02:37 AM 56.5°F13.6°C 55.6°F13.1°C 97% 2.1 mph WNW3.4 kmh WNW 8.0 mph12.9 kmh 30.06 in1017.9 mb 0.10 in2.5 mm 0.12 in3.0 mm 0.15 in3.8 mm
02:32 AM 56.5°F13.6°C 55.6°F13.1°C 97% 2.7 mph WNW4.3 kmh WNW 8.0 mph12.9 kmh 30.06 in1017.9 mb 0.09 in2.3 mm 0.00 in0.0 mm 0.14 in3.6 mm
02:27 AM 56.6°F13.7°C 55.8°F13.2°C 97% 2.1 mph NW3.4 kmh NW 9.0 mph14.5 kmh 30.06 in1017.9 mb 0.09 in2.3 mm 0.00 in0.0 mm 0.14 in3.6 mm
02:22 AM 56.7°F13.7°C 55.6°F13.1°C 96% 3.9 mph NW6.3 kmh NW 9.0 mph14.5 kmh 30.07 in1018.3 mb 0.11 in2.8 mm 0.00 in0.0 mm 0.14 in3.6 mm
02:17 AM 56.8°F13.8°C 55.6°F13.1°C 96% 2.0 mph WNW3.2 kmh WNW 9.0 mph14.5 kmh 30.07 in1018.3 mb 0.12 in3.0 mm 0.12 in3.0 mm 0.14 in3.6 mm
02:12 AM 57.0°F13.9°C 55.8°F13.2°C 96% 3.6 mph NW5.8 kmh NW 9.0 mph14.5 kmh 30.07 in1018.3 mb 0.11 in2.8 mm 0.24 in6.1 mm 0.13 in3.3 mm
02:07 AM 57.4°F14.1°C 56.2°F13.4°C 96% 2.5 mph NW4.0 kmh NW 9.0 mph14.5 kmh 30.07 in1018.3 mb 0.09 in2.3 mm 0.24 in6.1 mm 0.10 in2.5 mm
02:02 AM 58.0°F14.4°C 56.5°F13.6°C 95% 3.2 mph NNW5.1 kmh NNW 9.0 mph14.5 kmh 30.07 in1018.3 mb 0.07 in1.8 mm 0.01 in0.3 mm 0.08 in2.0 mm
01:58 AM 59.1°F15.1°C 57.9°F14.4°C 96% 4.5 mph NNE7.2 kmh NNE 7.0 mph11.3 kmh 30.07 in1018.3 mb 0.06 in1.5 mm 0.00 in0.0 mm 0.07 in1.8 mm
01:53 AM 59.7°F15.4°C 58.8°F14.9°C 97% 2.2 mph NW3.5 kmh NW 6.0 mph9.7 kmh 30.07 in1018.3 mb 0.06 in1.5 mm 0.00 in0.0 mm 0.07 in1.8 mm
01:48 AM 59.7°F15.4°C 58.8°F14.9°C 97% 1.3 mph NW2.1 kmh NW 8.0 mph12.9 kmh 30.07 in1018.3 mb 0.06 in1.5 mm 0.00 in0.0 mm 0.06 in1.5 mm
01:43 AM 59.7°F15.4°C 58.8°F14.9°C 97% 3.1 mph W5.0 kmh W 10.0 mph16.1 kmh 30.07 in1018.3 mb 0.06 in1.5 mm 0.12 in3.0 mm 0.06 in1.5 mm
01:38 AM 59.7°F15.4°C 58.8°F14.9°C 97% 2.1 mph W3.4 kmh W 10.0 mph16.1 kmh 30.07 in1018.3 mb 0.05 in1.3 mm 0.00 in0.0 mm 0.05 in1.3 mm
01:33 AM 59.6°F15.3°C 58.7°F14.8°C 97% 2.5 mph WSW4.0 kmh WSW 10.0 mph16.1 kmh 30.07 in1018.3 mb 0.05 in1.3 mm 0.00 in0.0 mm 0.05 in1.3 mm
01:28 AM 59.6°F15.3°C 58.7°F14.8°C 97% 4.7 mph WSW7.6 kmh WSW 10.0 mph16.1 kmh 30.07 in1018.3 mb 0.05 in1.3 mm 0.12 in3.0 mm 0.05 in1.3 mm
01:23 AM 59.5°F15.3°C 58.3°F14.6°C 96% 2.9 mph SW4.7 kmh SW 12.0 mph19.3 kmh 30.07 in1018.3 mb 0.04 in1.0 mm 0.24 in6.1 mm 0.04 in1.0 mm
01:18 AM 59.5°F15.3°C 58.3°F14.6°C 96% 3.3 mph SW5.3 kmh SW 12.0 mph19.3 kmh 30.07 in1018.3 mb 0.02 in0.5 mm 0.00 in0.0 mm 0.02 in0.5 mm
01:13 AM 59.4°F15.2°C 58.2°F14.6°C 96% 4.1 mph WSW6.6 kmh WSW 12.0 mph19.3 kmh 30.07 in1018.3 mb 0.02 in0.5 mm 0.12 in3.0 mm 0.02 in0.5 mm
01:08 AM 59.4°F15.2°C 58.3°F14.6°C 96% 4.4 mph WSW7.1 kmh WSW 12.0 mph19.3 kmh 30.08 in1018.6 mb 0.01 in0.3 mm 0.00 in0.0 mm 0.02 in0.5 mm
01:03 AM 59.4°F15.2°C 58.2°F14.6°C 96% 4.1 mph SW6.6 kmh SW 10.0 mph16.1 kmh 30.08 in1018.6 mb 0.01 in0.3 mm 0.00 in0.0 mm 0.01 in0.3 mm
12:58 AM 59.4°F15.2°C 58.2°F14.6°C 96% 5.0 mph SW8.0 kmh SW 11.0 mph17.7 kmh 30.08 in1018.6 mb 0.01 in0.3 mm 0.00 in0.0 mm 0.01 in0.3 mm
12:53 AM 59.4°F15.2°C 58.3°F14.6°C 96% 4.2 mph SW6.8 kmh SW 14.0 mph22.5 kmh 30.08 in1018.6 mb 0.01 in0.3 mm 0.12 in3.0 mm 0.01 in0.3 mm
12:48 AM 59.4°F15.2°C 58.0°F14.4°C 95% 5.0 mph SW8.0 kmh SW 14.0 mph22.5 kmh 30.08 in1018.6 mb 0.00 in0.0 mm 0.00 in0.0 mm 0.00 in0.0 mm
12:43 AM 59.4°F15.2°C 58.0°F14.4°C 95% 4.5 mph SW7.2 kmh SW 15.0 mph24.1 kmh 30.09 in1019.0 mb 0.00 in0.0 mm 0.00 in0.0 mm 0.00 in0.0 mm
12:38 AM 59.3°F15.2°C 57.8°F14.3°C 95% 6.0 mph SW9.7 kmh SW 15.0 mph24.1 kmh 30.09 in1019.0 mb 0.00 in0.0 mm 0.00 in0.0 mm 0.00 in0.0 mm
12:33 AM 59.2°F15.1°C 57.7°F14.3°C 95% 2.4 mph SW3.9 kmh SW 15.0 mph24.1 kmh 30.09 in1019.0 mb 0.00 in0.0 mm 0.00 in0.0 mm 0.00 in0.0 mm
12:28 AM 59.1°F15.1°C 57.6°F14.2°C 95% 6.3 mph SW10.1 kmh SW 15.0 mph24.1 kmh 30.09 in1019.0 mb 0.00 in0.0 mm 0.00 in0.0 mm 0.00 in0.0 mm
12:23 AM 59.1°F15.1°C 57.6°F14.2°C 95% 4.9 mph SW7.9 kmh SW 14.0 mph22.5 kmh 30.09 in1019.0 mb 0.00 in0.0 mm 0.00 in0.0 mm 0.00 in0.0 mm
12:18 AM 58.9°F14.9°C 57.4°F14.1°C 95% 8.3 mph SW13.4 kmh SW 14.0 mph22.5 kmh 30.09 in1019.0 mb 0.00 in0.0 mm 0.00 in0.0 mm 0.00 in0.0 mm
12:13 AM 58.8°F14.9°C 57.3°F14.1°C 95% 4.6 mph SW7.4 kmh SW 14.0 mph22.5 kmh 30.09 in1019.0 mb 0.00 in0.0 mm 0.00 in0.0 mm 0.00 in0.0 mm
12:08 AM 58.7°F14.8°C 57.3°F14.1°C 95% 6.0 mph SW9.7 kmh SW 13.0 mph20.9 kmh 30.09 in1019.0 mb 0.00 in0.0 mm 0.00 in0.0 mm 0.00 in0.0 mm
12:03 AM 58.6°F14.8°C 57.2°F14.0°C 95% 4.3 mph SW6.9 kmh SW 13.0 mph20.9 kmh 30.09 in1019.0 mb 0.00 in0.0 mm 0.00 in0.0 mm 0.00 in0.0 mm